createdAt,value
2018-09-16T00:01:13.880Z,1.93
2018-09-16T00:03:43.483Z,1.53
2018-09-16T00:06:13.181Z,1.23
2018-09-16T00:08:42.843Z,1.23
2018-09-16T00:11:13.172Z,0.90
2018-09-16T00:13:42.773Z,1.10
2018-09-16T00:16:12.482Z,1.80
2018-09-16T00:18:42.467Z,1.03
2018-09-16T00:21:12.643Z,1.60
2018-09-16T00:23:42.302Z,1.83
2018-09-16T00:26:12.183Z,1.60
2018-09-16T00:28:43.283Z,1.63
2018-09-16T00:31:12.954Z,2.10
2018-09-16T00:33:42.568Z,1.23
2018-09-16T00:36:12.285Z,1.80
2018-09-16T00:38:42.594Z,1.47
2018-09-16T00:41:12.723Z,2.00
2018-09-16T00:44:08.972Z,1.23
2018-09-16T00:46:38.708Z,1.30
2018-09-16T00:49:09.044Z,2.73
2018-09-16T00:51:40.252Z,1.50
2018-09-16T00:54:10.336Z,1.43
2018-09-16T00:56:40.242Z,1.00
2018-09-16T00:59:09.983Z,1.67
2018-09-16T01:01:40.203Z,1.80
2018-09-16T01:04:09.734Z,1.43
2018-09-16T01:06:40.138Z,1.00
2018-09-16T01:09:15.822Z,3.30
2018-09-16T01:11:45.981Z,1.10
2018-09-16T01:14:16.474Z,1.80
2018-09-16T01:16:46.047Z,1.77
2018-09-16T01:19:15.601Z,1.20
2018-09-16T01:21:46.977Z,1.60
2018-09-16T01:24:17.104Z,1.23
2018-09-16T01:26:47.672Z,1.53
2018-09-16T01:29:17.192Z,1.63
2018-09-16T01:31:47.915Z,2.10
2018-09-16T01:34:17.539Z,1.33
2018-09-16T01:36:47.069Z,1.53
2018-09-16T01:39:16.816Z,1.80
2018-09-16T01:41:46.471Z,1.70
2018-09-16T01:44:16.016Z,1.63
2018-09-16T01:46:45.642Z,1.33
2018-09-16T01:49:16.632Z,1.70
2018-09-16T01:51:46.285Z,1.47
2018-09-16T01:54:16.335Z,1.77
2018-09-16T01:56:46.114Z,1.37
2018-09-16T01:59:15.700Z,1.37
2018-09-16T02:01:45.597Z,0.83
2018-09-16T02:04:16.562Z,1.20
2018-09-16T02:06:46.648Z,1.10
2018-09-16T02:09:16.986Z,1.20
2018-09-16T02:11:47.124Z,1.00
2018-09-16T02:14:16.905Z,1.30
2018-09-16T02:16:46.485Z,1.40
2018-09-16T02:19:17.025Z,1.63
2018-09-16T02:21:48.200Z,1.10
2018-09-16T02:24:18.952Z,1.70
2018-09-16T02:26:48.463Z,1.50
2018-09-16T02:29:19.540Z,0.93
2018-09-16T02:31:49.141Z,1.10
2018-09-16T02:34:18.699Z,0.90
2018-09-16T02:36:48.698Z,0.77
2018-09-16T02:39:18.260Z,0.93
2018-09-16T02:41:48.758Z,1.00
2018-09-16T02:44:19.144Z,1.10
2018-09-16T02:46:48.996Z,1.73
2018-09-16T02:49:18.639Z,1.77
2018-09-16T02:51:49.332Z,1.70
2018-09-16T02:54:19.074Z,1.00
2018-09-16T02:56:49.817Z,0.83
2018-09-16T02:59:22.323Z,0.77
2018-09-16T03:01:51.978Z,1.10
2018-09-16T03:04:21.609Z,0.93
2018-09-16T03:06:53.680Z,1.00
2018-09-16T03:09:24.218Z,1.00
2018-09-16T03:11:53.761Z,1.10
2018-09-16T03:14:23.849Z,0.87
2018-09-16T03:16:54.020Z,0.83
2018-09-16T03:19:24.450Z,1.40
2018-09-16T03:22:01.499Z,1.53
2018-09-16T03:24:33.401Z,1.47
2018-09-16T03:27:03.069Z,1.00
2018-09-16T03:29:33.317Z,1.00
2018-09-16T03:32:06.553Z,1.00
2018-09-16T03:37:34.464Z,1.37
2018-09-16T03:40:04.651Z,1.73
2018-09-16T03:42:34.667Z,1.50
2018-09-16T03:45:04.335Z,1.73
2018-09-16T03:47:34.106Z,1.97
2018-09-16T03:50:04.354Z,2.10
2018-09-16T03:52:35.594Z,2.47
2018-09-16T03:55:05.696Z,2.20
2018-09-16T03:57:36.762Z,2.07
2018-09-16T04:00:08.894Z,2.00
2018-09-16T04:02:40.084Z,1.27
2018-09-16T04:05:09.790Z,1.40
2018-09-16T04:07:39.614Z,1.60
2018-09-16T04:10:09.148Z,1.63
2018-09-16T04:12:41.316Z,2.23
2018-09-16T04:15:10.939Z,2.30
2018-09-16T04:17:40.549Z,2.70
2018-09-16T04:20:12.801Z,1.70
2018-09-16T04:22:42.774Z,1.90
2018-09-16T04:25:12.293Z,1.57
2018-09-16T04:27:46.083Z,1.57
2018-09-16T04:30:16.064Z,1.27
2018-09-16T04:32:45.925Z,1.40
2018-09-16T04:35:16.629Z,1.30
2018-09-16T04:37:46.138Z,1.20
2018-09-16T04:40:16.238Z,1.40
2018-09-16T04:42:49.817Z,1.67
2018-09-16T04:45:19.290Z,1.00
2018-09-16T04:47:49.941Z,1.43
2018-09-16T04:50:19.549Z,1.87
2018-09-16T04:52:50.054Z,1.20
2018-09-16T04:55:20.965Z,1.60
2018-09-16T04:57:52.347Z,2.50
2018-09-16T05:00:24.232Z,1.67
2018-09-16T05:02:53.890Z,1.60
2018-09-16T05:05:28.100Z,1.90
2018-09-16T05:07:57.822Z,2.23
2018-09-16T05:10:28.257Z,2.30
2018-09-16T05:20:42.578Z,1.60
2018-09-16T05:23:12.251Z,2.43
2018-09-16T05:25:43.193Z,1.87
2018-09-16T05:28:13.587Z,2.30
2018-09-16T05:30:45.323Z,1.83
2018-09-16T05:33:14.825Z,1.90
2018-09-16T05:35:45.731Z,1.70
2018-09-16T05:38:32.727Z,2.07
2018-09-16T05:41:03.209Z,2.13
2018-09-16T05:43:32.664Z,1.97
2018-09-16T05:46:02.422Z,2.40
2018-09-16T05:48:32.864Z,2.17
2018-09-16T05:51:02.507Z,2.23
2018-09-16T05:53:32.244Z,2.30
2018-09-16T05:56:01.911Z,2.33
2018-09-16T05:58:31.643Z,1.90
2018-09-16T06:01:02.217Z,2.93
2018-09-16T06:03:32.093Z,2.23
2018-09-16T06:06:05.015Z,2.47
2018-09-16T06:08:35.105Z,2.60
2018-09-16T06:11:05.895Z,2.60
2018-09-16T06:13:35.531Z,2.67
2018-09-16T06:16:05.248Z,2.60
2018-09-16T06:18:35.734Z,2.87
2018-09-16T06:21:06.356Z,2.63
2018-09-16T06:23:36.944Z,1.90
2018-09-16T06:26:08.186Z,2.60
2018-09-16T06:28:40.261Z,2.97
2018-09-16T06:31:09.921Z,2.13
2018-09-16T06:33:39.578Z,2.70
2018-09-16T06:36:10.438Z,2.93
2018-09-16T06:38:41.603Z,2.90
2018-09-16T06:41:11.951Z,2.77
2018-09-16T06:43:43.081Z,2.90
2018-09-16T06:46:14.104Z,2.60
2018-09-16T06:48:44.959Z,2.57
2018-09-16T06:51:14.682Z,3.03
2018-09-16T06:53:44.296Z,3.27
2018-09-16T06:56:14.242Z,3.17
2018-09-16T06:58:45.457Z,4.10
2018-09-16T07:01:15.679Z,3.13
2018-09-16T07:03:45.240Z,3.63
2018-09-16T07:06:14.803Z,4.97
2018-09-16T07:08:46.358Z,3.47
2018-09-16T07:11:16.865Z,3.80
2018-09-16T07:13:46.805Z,5.30
2018-09-16T07:19:23.836Z,5.10
2018-09-16T07:21:55.632Z,3.40
2018-09-16T07:24:28.082Z,4.60
2018-09-16T07:26:58.436Z,3.60
2018-09-16T07:29:28.049Z,3.53
2018-09-16T07:31:57.719Z,3.90
2018-09-16T07:34:27.287Z,3.67
2018-09-16T07:36:57.052Z,3.93
2018-09-16T07:39:27.325Z,3.70
2018-09-16T07:41:56.985Z,2.13
2018-09-16T07:44:27.871Z,3.33
2018-09-16T07:46:59.191Z,2.97
2018-09-16T07:49:29.390Z,2.93
2018-09-16T07:52:00.165Z,3.83
2018-09-16T07:54:30.457Z,3.17
2018-09-16T07:57:01.020Z,2.87
2018-09-16T07:59:31.261Z,2.87
2018-09-16T08:02:02.655Z,2.73
2018-09-16T08:04:32.451Z,2.30
2018-09-16T08:07:02.159Z,1.60
2018-09-16T08:09:31.978Z,2.47
2018-09-16T08:12:01.841Z,2.60
2018-09-16T08:14:32.968Z,2.37
2018-09-16T08:17:02.535Z,1.93
2018-09-16T08:19:33.353Z,1.83
2018-09-16T08:22:03.156Z,2.80
2018-09-16T08:24:32.687Z,1.73
2018-09-16T08:27:02.253Z,1.90
2018-09-16T08:29:31.848Z,1.27
2018-09-16T08:32:01.430Z,2.10
2018-09-16T08:34:31.874Z,1.77
2018-09-16T08:37:04.148Z,1.63
2018-09-16T08:39:34.461Z,1.30
2018-09-16T08:42:04.236Z,1.40
2018-09-16T08:44:33.997Z,3.10
2018-09-16T08:47:05.106Z,1.47
2018-09-16T08:49:34.700Z,1.80
2018-09-16T08:52:04.580Z,1.63
2018-09-16T08:54:34.321Z,1.93
2018-09-16T08:57:04.105Z,1.67
2018-09-16T08:59:33.822Z,1.47
2018-09-16T09:02:03.576Z,1.07
2018-09-16T09:04:33.661Z,1.30
2018-09-16T09:07:03.506Z,1.60
2018-09-16T09:09:33.385Z,1.73
2018-09-16T09:12:03.252Z,1.30
2018-09-16T09:14:32.857Z,1.00
2018-09-16T09:17:03.250Z,1.20
2018-09-16T09:20:05.409Z,1.30
2018-09-16T09:22:35.035Z,1.60
2018-09-16T09:25:08.456Z,1.43
2018-09-16T09:27:38.363Z,0.90
2018-09-16T09:30:08.204Z,0.60
2018-09-16T09:32:37.739Z,1.30
2018-09-16T09:35:08.646Z,0.80
2018-09-16T09:37:40.577Z,1.30
2018-09-16T09:40:12.561Z,1.20
2018-09-16T09:42:42.318Z,1.00
2018-09-16T09:45:12.146Z,0.90
2018-09-16T09:47:42.262Z,1.40
2018-09-16T09:50:12.850Z,0.93
2018-09-16T09:52:42.507Z,1.07
2018-09-16T09:55:12.374Z,0.80
2018-09-16T09:57:42.102Z,1.10
2018-09-16T10:00:15.139Z,0.70
2018-09-16T10:02:44.772Z,0.87
2018-09-16T10:05:15.309Z,1.17
2018-09-16T10:07:46.643Z,0.83
2018-09-16T10:10:16.256Z,1.17
2018-09-16T10:12:46.378Z,1.70
2018-09-16T10:15:17.138Z,0.80
2018-09-16T10:17:46.700Z,1.23
2018-09-16T10:20:16.341Z,1.30
2018-09-16T10:22:50.633Z,1.10
2018-09-16T10:25:20.959Z,1.80
2018-09-16T10:27:51.246Z,1.20
2018-09-16T10:30:21.725Z,1.00
2018-09-16T10:32:51.576Z,1.20
2018-09-16T10:35:21.384Z,1.17
2018-09-16T10:37:50.937Z,1.70
2018-09-16T10:40:21.658Z,1.33
2018-09-16T10:42:51.217Z,2.30
2018-09-16T10:45:20.945Z,1.00
2018-09-16T10:47:51.076Z,1.93
2018-09-16T10:50:21.081Z,1.30
2018-09-16T10:52:50.975Z,1.73
2018-09-16T10:55:21.544Z,1.67
2018-09-16T10:57:52.165Z,1.37
2018-09-16T11:00:21.905Z,0.90
2018-09-16T11:02:52.845Z,1.10
2018-09-16T11:05:22.534Z,1.27
2018-09-16T11:07:52.708Z,1.00
2018-09-16T11:10:23.194Z,0.80
2018-09-16T11:12:54.071Z,1.00
2018-09-16T11:15:23.942Z,1.90
2018-09-16T11:17:53.467Z,1.00
2018-09-16T11:20:24.819Z,0.70
2018-09-16T11:22:54.717Z,0.80
2018-09-16T11:25:24.334Z,0.70
2018-09-16T11:27:54.741Z,0.70
2018-09-16T11:30:25.352Z,1.03
2018-09-16T11:32:55.991Z,0.80
2018-09-16T11:35:25.697Z,0.60
2018-09-16T11:37:55.991Z,1.13
2018-09-16T11:40:26.721Z,0.67
2018-09-16T11:42:56.446Z,1.20
2018-09-16T11:45:26.276Z,0.67
2018-09-16T11:47:55.843Z,0.83
2018-09-16T11:50:26.356Z,1.10
2018-09-16T11:52:56.667Z,0.93
2018-09-16T11:55:27.345Z,1.00
2018-09-16T11:57:57.058Z,0.80
2018-09-16T12:00:27.031Z,0.90
2018-09-16T12:02:56.606Z,1.00
2018-09-16T12:05:26.818Z,0.60
2018-09-16T12:07:57.081Z,1.43
2018-09-16T12:10:27.296Z,0.90
2018-09-16T12:12:56.820Z,2.30
2018-09-16T12:15:26.478Z,0.73
2018-09-16T12:17:57.819Z,1.10
2018-09-16T12:20:31.277Z,1.13
2018-09-16T12:23:01.090Z,0.90
2018-09-16T12:25:30.783Z,1.20
2018-09-16T12:28:00.877Z,1.27
2018-09-16T12:30:32.115Z,1.10
2018-09-16T12:33:02.578Z,0.90
2018-09-16T12:35:32.408Z,1.10
2018-09-16T12:41:00.634Z,1.57
2018-09-16T12:43:30.296Z,1.13
2018-09-16T12:46:00.225Z,0.80
2018-09-16T12:48:29.884Z,1.20
2018-09-16T12:50:59.529Z,1.30
2018-09-16T12:53:29.137Z,1.37
2018-09-16T12:55:58.735Z,1.60
2018-09-16T12:58:28.252Z,1.73
2018-09-16T13:00:57.874Z,1.10
2018-09-16T13:03:31.835Z,1.77
2018-09-16T13:06:01.516Z,1.47
2018-09-16T13:08:31.130Z,1.53
2018-09-16T13:11:01.372Z,1.70
2018-09-16T13:13:31.434Z,0.90
2018-09-16T13:16:01.263Z,1.27
2018-09-16T13:18:31.632Z,1.53
2018-09-16T13:21:02.388Z,1.60
2018-09-16T13:23:32.004Z,2.37
2018-09-16T13:26:01.657Z,2.50
2018-09-16T13:28:32.275Z,1.47
2018-09-16T13:31:02.475Z,2.10
2018-09-16T13:33:32.214Z,1.17
2018-09-16T13:36:04.682Z,2.10
2018-09-16T13:38:35.421Z,2.10
2018-09-16T13:41:05.068Z,1.67
2018-09-16T13:43:35.542Z,1.97
2018-09-16T13:46:05.703Z,2.00
2018-09-16T13:48:35.796Z,2.00
2018-09-16T13:51:05.884Z,2.10
2018-09-16T13:53:35.441Z,2.13
2018-09-16T13:56:05.154Z,1.60
2018-09-16T13:58:36.310Z,1.80
2018-09-16T14:01:07.166Z,2.57
2018-09-16T14:03:36.979Z,2.13
2018-09-16T14:06:06.752Z,2.60
2018-09-16T14:08:36.451Z,2.50
2018-09-16T14:11:06.265Z,2.87
2018-09-16T14:13:36.284Z,2.50
2018-09-16T14:16:05.933Z,2.23
2018-09-16T14:18:36.242Z,2.47
2018-09-16T14:21:05.983Z,2.30
2018-09-16T14:23:36.258Z,1.90
2018-09-16T14:26:07.092Z,1.93
2018-09-16T14:28:37.082Z,1.90
2018-09-16T14:31:07.642Z,2.07
2018-09-16T14:33:37.807Z,2.17
2018-09-16T14:36:08.675Z,2.30
2018-09-16T14:38:38.829Z,2.00
2018-09-16T14:44:52.086Z,1.97
2018-09-16T14:47:24.027Z,1.60
2018-09-16T14:49:55.822Z,2.17
2018-09-16T14:52:25.545Z,1.80
2018-09-16T14:54:55.181Z,2.40
2018-09-16T14:57:24.948Z,1.90
2018-09-16T14:59:54.458Z,2.00
2018-09-16T15:02:24.299Z,1.70
2018-09-16T15:04:54.661Z,1.80
2018-09-16T15:07:24.931Z,1.83
2018-09-16T15:09:54.712Z,1.63
2018-09-16T15:12:24.390Z,1.80
2018-09-16T15:14:54.113Z,1.23
2018-09-16T15:17:23.894Z,1.30
2018-09-16T15:19:53.577Z,1.13
2018-09-16T15:22:23.747Z,1.87
2018-09-16T15:24:53.547Z,1.47
2018-09-16T15:27:23.111Z,0.83
2018-09-16T15:29:53.559Z,1.23
2018-09-16T15:32:23.422Z,1.20
2018-09-16T15:34:54.125Z,1.00
2018-09-16T15:37:25.213Z,0.77
2018-09-16T15:39:54.894Z,1.00
2018-09-16T15:42:26.257Z,1.00
2018-09-16T15:44:56.180Z,1.10
2018-09-16T15:47:26.238Z,1.50
2018-09-16T15:49:57.239Z,1.17
2018-09-16T15:52:26.904Z,1.00
2018-09-16T15:55:18.440Z,1.37
2018-09-16T15:57:48.099Z,1.13
2018-09-16T16:00:18.850Z,0.83
2018-09-16T16:02:48.549Z,1.00
2018-09-16T16:05:18.218Z,0.90
2018-09-16T16:07:47.909Z,1.10
2018-09-16T16:10:17.532Z,0.87
2018-09-16T16:12:47.219Z,0.70
2018-09-16T16:15:17.491Z,1.00
2018-09-16T16:17:48.015Z,1.07
2018-09-16T16:20:18.339Z,1.07
2018-09-16T16:22:48.141Z,0.93
2018-09-16T16:25:17.921Z,0.70
2018-09-16T16:27:47.749Z,0.70
2018-09-16T16:30:17.337Z,1.00
2018-09-16T16:32:47.442Z,0.80
2018-09-16T16:35:17.496Z,0.90
2018-09-16T16:37:47.045Z,1.30
2018-09-16T16:40:16.568Z,0.90
2018-09-16T16:42:46.054Z,1.30
2018-09-16T16:45:15.589Z,1.30
2018-09-16T16:47:45.059Z,0.93
2018-09-16T16:50:14.522Z,1.10
2018-09-16T16:52:44.144Z,1.30
2018-09-16T16:55:14.330Z,0.90
2018-09-16T16:57:43.834Z,1.00
2018-09-16T17:00:13.713Z,1.00
2018-09-16T17:02:43.362Z,0.80
2018-09-16T17:05:12.957Z,0.67
2018-09-16T17:07:42.637Z,1.43
2018-09-16T17:10:12.152Z,0.90
2018-09-16T17:12:41.680Z,0.73
2018-09-16T17:15:11.286Z,1.20
2018-09-16T17:17:40.757Z,1.23
2018-09-16T17:20:10.293Z,0.90
2018-09-16T17:22:39.820Z,1.07
2018-09-16T17:25:09.421Z,1.27
2018-09-16T17:27:38.963Z,0.83
2018-09-16T17:30:08.498Z,0.80
2018-09-16T17:32:38.004Z,0.97
2018-09-16T17:35:07.577Z,1.17
2018-09-16T17:37:37.017Z,0.93
2018-09-16T17:40:07.237Z,1.33
2018-09-16T17:42:36.770Z,0.97
2018-09-16T17:45:06.456Z,1.30
2018-09-16T17:47:35.940Z,1.30
2018-09-16T17:50:05.443Z,0.90
2018-09-16T17:52:35.020Z,1.30
2018-09-16T17:55:04.469Z,0.97
2018-09-16T17:57:33.941Z,2.00
2018-09-16T18:00:03.596Z,1.13
2018-09-16T18:02:33.120Z,1.13
2018-09-16T18:05:02.606Z,0.97
2018-09-16T18:07:32.132Z,1.07
2018-09-16T18:10:01.795Z,1.10
2018-09-16T18:12:31.291Z,1.30
2018-09-16T18:15:01.701Z,0.90
2018-09-16T18:17:31.205Z,0.77
2018-09-16T18:20:00.727Z,0.80
2018-09-16T18:22:30.184Z,1.60
2018-09-16T18:24:59.689Z,1.47
2018-09-16T18:27:29.191Z,1.50
2018-09-16T18:29:59.337Z,1.10
2018-09-16T18:32:28.798Z,1.00
2018-09-16T18:34:58.356Z,2.13
2018-09-16T18:37:27.851Z,1.37
2018-09-16T18:39:57.365Z,1.10
2018-09-16T18:42:27.458Z,1.20
2018-09-16T18:44:57.014Z,1.40
2018-09-16T18:47:27.141Z,1.67
2018-09-16T18:49:56.659Z,1.40
2018-09-16T18:52:26.235Z,2.00
2018-09-16T18:54:55.813Z,1.40
2018-09-16T18:57:25.336Z,1.53
2018-09-16T18:59:54.861Z,1.30
2018-09-16T19:02:24.353Z,1.10
2018-09-16T19:04:53.872Z,1.20
2018-09-16T19:07:23.445Z,1.40
2018-09-16T19:09:53.005Z,1.20
2018-09-16T19:12:22.653Z,1.00
2018-09-16T19:14:52.212Z,1.00
2018-09-16T19:17:21.830Z,1.57
2018-09-16T19:19:51.348Z,1.20
2018-09-16T19:22:21.140Z,1.60
2018-09-16T19:24:50.655Z,1.40
2018-09-16T19:27:20.240Z,1.30
2018-09-16T19:29:49.699Z,2.10
2018-09-16T19:32:19.191Z,2.00
2018-09-16T19:34:48.920Z,1.30
2018-09-16T19:37:18.454Z,1.83
2018-09-16T19:39:47.967Z,1.73
2018-09-16T19:42:17.513Z,1.80
2018-09-16T19:44:46.963Z,1.93
2018-09-16T19:47:16.490Z,1.20
2018-09-16T19:49:45.986Z,1.63
2018-09-16T19:52:15.568Z,2.20
2018-09-16T19:54:45.019Z,1.47
2018-09-16T19:57:14.736Z,1.53
2018-09-16T19:59:44.222Z,1.50
2018-09-16T20:02:13.784Z,1.80
2018-09-16T20:04:43.284Z,2.37
2018-09-16T20:07:13.180Z,1.80
2018-09-16T20:09:42.686Z,1.33
2018-09-16T20:12:12.129Z,2.00
2018-09-16T20:14:41.687Z,1.67
2018-09-16T20:17:11.231Z,1.60
2018-09-16T20:19:40.723Z,2.37
2018-09-16T20:22:10.430Z,1.50
2018-09-16T20:24:40.170Z,1.30
2018-09-16T20:27:09.666Z,1.50
2018-09-16T20:29:39.129Z,0.80
2018-09-16T20:32:08.853Z,1.20
2018-09-16T20:34:38.324Z,1.10
2018-09-16T20:37:07.813Z,1.53
2018-09-16T20:39:37.730Z,1.23
2018-09-16T20:42:07.297Z,1.43
2018-09-16T20:44:36.801Z,1.10
2018-09-16T20:47:06.482Z,1.27
2018-09-16T20:49:35.995Z,1.80
2018-09-16T20:52:05.611Z,1.97
2018-09-16T20:54:35.155Z,1.70
2018-09-16T20:57:04.609Z,2.50
2018-09-16T20:59:34.090Z,1.90
2018-09-16T21:02:03.610Z,1.90
2018-09-16T21:04:33.117Z,1.60
2018-09-16T21:07:02.642Z,1.87
2018-09-16T21:09:32.122Z,2.40
2018-09-16T21:12:01.643Z,2.13
2018-09-16T21:14:31.123Z,2.50
2018-09-16T21:17:00.562Z,2.33
2018-09-16T21:19:30.079Z,1.90
2018-09-16T21:21:59.510Z,2.57
2018-09-16T21:24:29.051Z,1.70
2018-09-16T21:26:58.490Z,2.00
2018-09-16T21:29:27.951Z,2.17
2018-09-16T21:31:57.517Z,2.10
2018-09-16T21:34:26.972Z,2.10
2018-09-16T21:36:56.399Z,2.27
2018-09-16T21:39:25.881Z,2.03
2018-09-16T21:41:55.344Z,2.63
2018-09-16T21:44:24.779Z,2.17
2018-09-16T21:46:54.303Z,2.50
2018-09-16T21:49:24.248Z,2.50
2018-09-16T21:51:53.745Z,1.67
2018-09-16T21:54:23.240Z,2.60
2018-09-16T21:56:52.743Z,2.90
2018-09-16T21:59:22.236Z,2.50
2018-09-16T22:01:51.756Z,2.20
2018-09-16T22:04:21.716Z,2.17
2018-09-16T22:06:51.456Z,2.30
2018-09-16T22:09:24.169Z,2.53
2018-09-16T22:11:54.960Z,2.60
2018-09-16T22:14:24.513Z,2.30
2018-09-16T22:16:54.038Z,2.20
2018-09-16T22:19:23.517Z,2.50
2018-09-16T22:21:52.969Z,2.80
2018-09-16T22:24:22.478Z,1.93
2018-09-16T22:26:51.900Z,2.83
2018-09-16T22:29:21.392Z,2.20
2018-09-16T22:31:51.048Z,1.87
2018-09-16T22:34:20.746Z,2.00
2018-09-16T22:36:51.033Z,2.30
2018-09-16T22:39:20.457Z,2.10
2018-09-16T22:41:49.920Z,2.30
2018-09-16T22:44:19.391Z,1.60
2018-09-16T22:46:49.710Z,2.37
2018-09-16T22:49:19.234Z,2.73
2018-09-16T22:51:48.648Z,2.30
2018-09-16T22:54:18.188Z,2.77
2018-09-16T22:56:47.693Z,2.40
2018-09-16T22:59:17.166Z,2.33
2018-09-16T23:01:47.148Z,1.67
2018-09-16T23:04:17.211Z,2.27
2018-09-16T23:06:46.774Z,2.20
2018-09-16T23:09:16.285Z,2.10
2018-09-16T23:11:46.092Z,2.30
2018-09-16T23:14:15.641Z,2.93
2018-09-16T23:16:45.149Z,2.03
2018-09-16T23:19:14.645Z,1.90
2018-09-16T23:21:44.166Z,2.43
2018-09-16T23:24:14.273Z,2.43
2018-09-16T23:26:43.765Z,1.63
2018-09-16T23:29:13.204Z,1.70
2018-09-16T23:31:42.861Z,2.00
2018-09-16T23:34:12.420Z,2.30
2018-09-16T23:36:42.050Z,2.40
2018-09-16T23:39:11.553Z,1.90
2018-09-16T23:41:41.045Z,1.63
2018-09-16T23:44:10.682Z,2.23
2018-09-16T23:46:40.167Z,2.67
2018-09-16T23:49:10.201Z,2.30
2018-09-16T23:51:39.680Z,2.10
2018-09-16T23:54:09.245Z,1.97
2018-09-16T23:56:38.824Z,1.40
2018-09-16T23:59:08.509Z,1.60
